sensor_id;sensor_type;location;lat;lon;timestamp;P1;durP1;ratioP1;P2;durP2;ratioP2
17686;SDS011;8962;52.538;13.266;2022-12-18T00:01:20;54.10;;;19.73;;
17686;SDS011;8962;52.538;13.266;2022-12-18T00:03:48;53.10;;;19.48;;
17686;SDS011;8962;52.538;13.266;2022-12-18T00:06:17;50.72;;;19.70;;
17686;SDS011;8962;52.538;13.266;2022-12-18T00:08:45;50.63;;;18.95;;
17686;SDS011;8962;52.538;13.266;2022-12-18T00:11:15;50.65;;;18.73;;
17686;SDS011;8962;52.538;13.266;2022-12-18T00:13:43;53.05;;;18.67;;
17686;SDS011;8962;52.538;13.266;2022-12-18T00:16:12;52.40;;;19.15;;
17686;SDS011;8962;52.538;13.266;2022-12-18T00:18:42;48.42;;;19.20;;
17686;SDS011;8962;52.538;13.266;2022-12-18T00:21:10;49.60;;;18.77;;
17686;SDS011;8962;52.538;13.266;2022-12-18T00:23:39;53.92;;;19.17;;
17686;SDS011;8962;52.538;13.266;2022-12-18T00:26:10;53.63;;;18.92;;
17686;SDS011;8962;52.538;13.266;2022-12-18T00:28:43;51.30;;;18.30;;
17686;SDS011;8962;52.538;13.266;2022-12-18T00:31:11;57.22;;;19.55;;
17686;SDS011;8962;52.538;13.266;2022-12-18T00:33:40;57.95;;;21.08;;
17686;SDS011;8962;52.538;13.266;2022-12-18T00:36:09;57.53;;;20.10;;
17686;SDS011;8962;52.538;13.266;2022-12-18T00:38:39;64.82;;;20.70;;
17686;SDS011;8962;52.538;13.266;2022-12-18T00:41:09;65.90;;;21.83;;
17686;SDS011;8962;52.538;13.266;2022-12-18T00:43:37;63.70;;;21.50;;
17686;SDS011;8962;52.538;13.266;2022-12-18T00:46:06;58.58;;;19.98;;
17686;SDS011;8962;52.538;13.266;2022-12-18T00:48:34;58.03;;;20.90;;
17686;SDS011;8962;52.538;13.266;2022-12-18T00:51:02;56.58;;;20.02;;
17686;SDS011;8962;52.538;13.266;2022-12-18T00:53:29;50.38;;;18.48;;
17686;SDS011;8962;52.538;13.266;2022-12-18T00:55:58;50.70;;;18.33;;
17686;SDS011;8962;52.538;13.266;2022-12-18T00:58:25;47.45;;;17.55;;
17686;SDS011;8962;52.538;13.266;2022-12-18T01:00:52;51.22;;;18.48;;
17686;SDS011;8962;52.538;13.266;2022-12-18T01:03:21;46.45;;;18.10;;
17686;SDS011;8962;52.538;13.266;2022-12-18T01:05:48;48.58;;;18.38;;
17686;SDS011;8962;52.538;13.266;2022-12-18T01:08:17;55.47;;;18.30;;
17686;SDS011;8962;52.538;13.266;2022-12-18T01:10:44;50.05;;;17.85;;
17686;SDS011;8962;52.538;13.266;2022-12-18T01:13:13;51.65;;;17.83;;
17686;SDS011;8962;52.538;13.266;2022-12-18T01:15:40;47.67;;;17.42;;
17686;SDS011;8962;52.538;13.266;2022-12-18T01:18:14;48.58;;;17.58;;
17686;SDS011;8962;52.538;13.266;2022-12-18T01:20:42;49.15;;;18.13;;
17686;SDS011;8962;52.538;13.266;2022-12-18T01:23:10;58.38;;;19.77;;
17686;SDS011;8962;52.538;13.266;2022-12-18T01:25:38;51.80;;;18.40;;
17686;SDS011;8962;52.538;13.266;2022-12-18T01:28:08;55.63;;;19.65;;
17686;SDS011;8962;52.538;13.266;2022-12-18T01:30:39;55.83;;;18.88;;
17686;SDS011;8962;52.538;13.266;2022-12-18T01:33:07;56.10;;;19.00;;
17686;SDS011;8962;52.538;13.266;2022-12-18T01:35:39;53.65;;;18.67;;
17686;SDS011;8962;52.538;13.266;2022-12-18T01:38:08;57.20;;;18.70;;
17686;SDS011;8962;52.538;13.266;2022-12-18T01:40:37;57.55;;;20.63;;
17686;SDS011;8962;52.538;13.266;2022-12-18T01:43:04;56.53;;;19.25;;
17686;SDS011;8962;52.538;13.266;2022-12-18T01:45:35;59.25;;;20.23;;
17686;SDS011;8962;52.538;13.266;2022-12-18T01:48:04;56.42;;;19.05;;
17686;SDS011;8962;52.538;13.266;2022-12-18T01:50:36;56.45;;;19.63;;
17686;SDS011;8962;52.538;13.266;2022-12-18T01:53:10;60.58;;;20.67;;
17686;SDS011;8962;52.538;13.266;2022-12-18T01:55:40;51.50;;;19.40;;
17686;SDS011;8962;52.538;13.266;2022-12-18T01:58:11;62.80;;;20.48;;
17686;SDS011;8962;52.538;13.266;2022-12-18T02:00:39;63.60;;;21.10;;
17686;SDS011;8962;52.538;13.266;2022-12-18T02:03:06;61.80;;;20.15;;
17686;SDS011;8962;52.538;13.266;2022-12-18T02:05:39;57.75;;;20.08;;
17686;SDS011;8962;52.538;13.266;2022-12-18T02:08:17;60.42;;;20.05;;
17686;SDS011;8962;52.538;13.266;2022-12-18T02:10:53;58.50;;;19.60;;
17686;SDS011;8962;52.538;13.266;2022-12-18T02:13:27;60.60;;;20.45;;
17686;SDS011;8962;52.538;13.266;2022-12-18T02:16:06;56.67;;;18.90;;
17686;SDS011;8962;52.538;13.266;2022-12-18T02:18:40;59.15;;;19.92;;
17686;SDS011;8962;52.538;13.266;2022-12-18T02:21:15;56.83;;;20.52;;
17686;SDS011;8962;52.538;13.266;2022-12-18T02:23:56;59.05;;;20.60;;
17686;SDS011;8962;52.538;13.266;2022-12-18T02:26:33;58.92;;;19.52;;
17686;SDS011;8962;52.538;13.266;2022-12-18T02:29:06;52.97;;;18.73;;
17686;SDS011;8962;52.538;13.266;2022-12-18T02:31:38;55.75;;;18.65;;
17686;SDS011;8962;52.538;13.266;2022-12-18T02:34:12;55.38;;;18.98;;
17686;SDS011;8962;52.538;13.266;2022-12-18T02:36:41;51.67;;;18.52;;
17686;SDS011;8962;52.538;13.266;2022-12-18T02:39:10;53.58;;;18.05;;
17686;SDS011;8962;52.538;13.266;2022-12-18T02:41:51;48.65;;;17.63;;
17686;SDS011;8962;52.538;13.266;2022-12-18T02:44:21;45.50;;;16.60;;
17686;SDS011;8962;52.538;13.266;2022-12-18T02:46:49;52.22;;;18.65;;
17686;SDS011;8962;52.538;13.266;2022-12-18T02:49:26;51.40;;;17.83;;
17686;SDS011;8962;52.538;13.266;2022-12-18T02:52:05;52.50;;;18.70;;
17686;SDS011;8962;52.538;13.266;2022-12-18T02:54:52;59.83;;;18.23;;
17686;SDS011;8962;52.538;13.266;2022-12-18T02:57:33;53.05;;;18.55;;
17686;SDS011;8962;52.538;13.266;2022-12-18T03:00:04;51.85;;;17.70;;
17686;SDS011;8962;52.538;13.266;2022-12-18T03:02:37;53.22;;;19.13;;
17686;SDS011;8962;52.538;13.266;2022-12-18T03:05:10;52.40;;;18.23;;
17686;SDS011;8962;52.538;13.266;2022-12-18T03:07:44;55.40;;;18.55;;
17686;SDS011;8962;52.538;13.266;2022-12-18T03:10:17;56.42;;;19.25;;
17686;SDS011;8962;52.538;13.266;2022-12-18T03:12:53;47.97;;;17.75;;
17686;SDS011;8962;52.538;13.266;2022-12-18T03:15:27;53.42;;;18.00;;
17686;SDS011;8962;52.538;13.266;2022-12-18T03:18:06;52.65;;;18.33;;
17686;SDS011;8962;52.538;13.266;2022-12-18T03:20:37;61.13;;;19.67;;
17686;SDS011;8962;52.538;13.266;2022-12-18T03:23:11;52.38;;;19.30;;
17686;SDS011;8962;52.538;13.266;2022-12-18T03:25:46;55.58;;;19.00;;
17686;SDS011;8962;52.538;13.266;2022-12-18T03:28:19;58.05;;;19.67;;
17686;SDS011;8962;52.538;13.266;2022-12-18T03:30:56;56.30;;;20.17;;
17686;SDS011;8962;52.538;13.266;2022-12-18T03:33:29;51.22;;;19.30;;
17686;SDS011;8962;52.538;13.266;2022-12-18T03:36:03;59.47;;;19.92;;
17686;SDS011;8962;52.538;13.266;2022-12-18T03:38:32;53.35;;;17.52;;
17686;SDS011;8962;52.538;13.266;2022-12-18T03:41:03;52.78;;;19.17;;
17686;SDS011;8962;52.538;13.266;2022-12-18T03:43:57;57.25;;;17.85;;
17686;SDS011;8962;52.538;13.266;2022-12-18T03:46:40;56.53;;;19.35;;
17686;SDS011;8962;52.538;13.266;2022-12-18T03:49:15;56.72;;;18.50;;
17686;SDS011;8962;52.538;13.266;2022-12-18T03:51:54;60.60;;;19.75;;
17686;SDS011;8962;52.538;13.266;2022-12-18T03:54:31;56.60;;;18.40;;
17686;SDS011;8962;52.538;13.266;2022-12-18T03:57:09;57.65;;;18.58;;
17686;SDS011;8962;52.538;13.266;2022-12-18T03:59:43;56.95;;;18.73;;
17686;SDS011;8962;52.538;13.266;2022-12-18T04:02:16;59.50;;;19.55;;
17686;SDS011;8962;52.538;13.266;2022-12-18T04:04:46;58.30;;;18.70;;
17686;SDS011;8962;52.538;13.266;2022-12-18T04:07:17;56.47;;;19.77;;
17686;SDS011;8962;52.538;13.266;2022-12-18T04:09:47;59.35;;;19.77;;
17686;SDS011;8962;52.538;13.266;2022-12-18T04:12:17;63.55;;;18.52;;
17686;SDS011;8962;52.538;13.266;2022-12-18T04:14:48;56.78;;;18.70;;
17686;SDS011;8962;52.538;13.266;2022-12-18T04:17:16;61.58;;;18.40;;
17686;SDS011;8962;52.538;13.266;2022-12-18T04:19:43;52.33;;;18.08;;
17686;SDS011;8962;52.538;13.266;2022-12-18T04:22:11;55.45;;;18.05;;
17686;SDS011;8962;52.538;13.266;2022-12-18T04:24:43;59.15;;;18.77;;
17686;SDS011;8962;52.538;13.266;2022-12-18T04:27:20;55.30;;;18.13;;
17686;SDS011;8962;52.538;13.266;2022-12-18T04:29:50;58.88;;;20.45;;
17686;SDS011;8962;52.538;13.266;2022-12-18T04:32:22;57.72;;;20.13;;
17686;SDS011;8962;52.538;13.266;2022-12-18T04:34:50;61.28;;;19.88;;
17686;SDS011;8962;52.538;13.266;2022-12-18T04:37:18;50.80;;;18.45;;
17686;SDS011;8962;52.538;13.266;2022-12-18T04:39:47;58.55;;;19.27;;
17686;SDS011;8962;52.538;13.266;2022-12-18T04:42:22;63.65;;;20.27;;
17686;SDS011;8962;52.538;13.266;2022-12-18T04:44:51;62.22;;;19.83;;
17686;SDS011;8962;52.538;13.266;2022-12-18T04:47:18;59.25;;;20.38;;
17686;SDS011;8962;52.538;13.266;2022-12-18T04:49:45;57.65;;;19.52;;
17686;SDS011;8962;52.538;13.266;2022-12-18T04:52:12;55.90;;;19.75;;
17686;SDS011;8962;52.538;13.266;2022-12-18T04:54:40;61.50;;;19.85;;
17686;SDS011;8962;52.538;13.266;2022-12-18T04:57:07;61.70;;;20.42;;
17686;SDS011;8962;52.538;13.266;2022-12-18T04:59:34;61.90;;;20.70;;
17686;SDS011;8962;52.538;13.266;2022-12-18T05:02:03;62.60;;;20.73;;
17686;SDS011;8962;52.538;13.266;2022-12-18T05:04:30;62.03;;;20.52;;
17686;SDS011;8962;52.538;13.266;2022-12-18T05:06:57;58.63;;;19.15;;
17686;SDS011;8962;52.538;13.266;2022-12-18T05:09:25;62.05;;;19.60;;
17686;SDS011;8962;52.538;13.266;2022-12-18T05:11:56;67.13;;;22.17;;
17686;SDS011;8962;52.538;13.266;2022-12-18T05:14:23;70.53;;;20.90;;
17686;SDS011;8962;52.538;13.266;2022-12-18T05:16:52;70.43;;;22.15;;
17686;SDS011;8962;52.538;13.266;2022-12-18T05:19:21;76.38;;;23.98;;
17686;SDS011;8962;52.538;13.266;2022-12-18T05:21:50;73.30;;;23.40;;
17686;SDS011;8962;52.538;13.266;2022-12-18T05:24:17;71.18;;;23.77;;
17686;SDS011;8962;52.538;13.266;2022-12-18T05:26:45;72.45;;;22.92;;
17686;SDS011;8962;52.538;13.266;2022-12-18T05:29:12;73.65;;;22.67;;
17686;SDS011;8962;52.538;13.266;2022-12-18T05:31:39;71.07;;;22.42;;
17686;SDS011;8962;52.538;13.266;2022-12-18T05:34:07;73.13;;;22.95;;
17686;SDS011;8962;52.538;13.266;2022-12-18T05:36:36;74.93;;;24.40;;
17686;SDS011;8962;52.538;13.266;2022-12-18T05:39:06;76.35;;;23.75;;
17686;SDS011;8962;52.538;13.266;2022-12-18T05:41:33;70.68;;;24.10;;
17686;SDS011;8962;52.538;13.266;2022-12-18T05:44:00;75.97;;;24.98;;
17686;SDS011;8962;52.538;13.266;2022-12-18T05:46:28;66.40;;;24.77;;
17686;SDS011;8962;52.538;13.266;2022-12-18T05:48:58;78.72;;;23.98;;
17686;SDS011;8962;52.538;13.266;2022-12-18T05:51:27;78.38;;;24.73;;
17686;SDS011;8962;52.538;13.266;2022-12-18T05:53:58;83.75;;;24.58;;
17686;SDS011;8962;52.538;13.266;2022-12-18T05:56:25;87.70;;;26.65;;
17686;SDS011;8962;52.538;13.266;2022-12-18T05:58:52;81.88;;;24.27;;
17686;SDS011;8962;52.538;13.266;2022-12-18T06:01:21;82.53;;;25.25;;
17686;SDS011;8962;52.538;13.266;2022-12-18T06:03:55;84.80;;;24.48;;
17686;SDS011;8962;52.538;13.266;2022-12-18T06:06:23;70.85;;;23.60;;
17686;SDS011;8962;52.538;13.266;2022-12-18T06:08:53;76.10;;;25.08;;
17686;SDS011;8962;52.538;13.266;2022-12-18T06:11:24;74.68;;;23.48;;
17686;SDS011;8962;52.538;13.266;2022-12-18T06:13:54;76.78;;;24.92;;
17686;SDS011;8962;52.538;13.266;2022-12-18T06:16:22;76.20;;;24.75;;
17686;SDS011;8962;52.538;13.266;2022-12-18T06:18:50;88.88;;;26.05;;
17686;SDS011;8962;52.538;13.266;2022-12-18T06:21:17;75.75;;;25.00;;
17686;SDS011;8962;52.538;13.266;2022-12-18T06:23:45;74.15;;;23.95;;
17686;SDS011;8962;52.538;13.266;2022-12-18T06:26:12;61.50;;;22.52;;
17686;SDS011;8962;52.538;13.266;2022-12-18T06:28:41;60.90;;;21.23;;
17686;SDS011;8962;52.538;13.266;2022-12-18T06:31:08;68.05;;;23.55;;
17686;SDS011;8962;52.538;13.266;2022-12-18T06:33:37;68.10;;;22.27;;
17686;SDS011;8962;52.538;13.266;2022-12-18T06:36:05;63.78;;;21.77;;
17686;SDS011;8962;52.538;13.266;2022-12-18T06:38:36;69.28;;;23.25;;
17686;SDS011;8962;52.538;13.266;2022-12-18T06:41:06;66.75;;;22.13;;
17686;SDS011;8962;52.538;13.266;2022-12-18T06:43:35;62.63;;;22.80;;
17686;SDS011;8962;52.538;13.266;2022-12-18T06:46:04;68.47;;;21.95;;
17686;SDS011;8962;52.538;13.266;2022-12-18T06:48:33;66.63;;;22.02;;
17686;SDS011;8962;52.538;13.266;2022-12-18T06:51:00;62.72;;;22.42;;
17686;SDS011;8962;52.538;13.266;2022-12-18T06:53:29;63.38;;;22.25;;
17686;SDS011;8962;52.538;13.266;2022-12-18T06:55:59;62.25;;;21.98;;
17686;SDS011;8962;52.538;13.266;2022-12-18T06:58:28;62.35;;;21.33;;
17686;SDS011;8962;52.538;13.266;2022-12-18T07:00:59;64.72;;;22.20;;
17686;SDS011;8962;52.538;13.266;2022-12-18T07:03:28;63.55;;;23.27;;
17686;SDS011;8962;52.538;13.266;2022-12-18T07:05:56;61.65;;;22.10;;
17686;SDS011;8962;52.538;13.266;2022-12-18T07:08:23;60.78;;;22.80;;
17686;SDS011;8962;52.538;13.266;2022-12-18T07:10:50;61.00;;;22.15;;
17686;SDS011;8962;52.538;13.266;2022-12-18T07:13:19;59.50;;;20.48;;
17686;SDS011;8962;52.538;13.266;2022-12-18T07:15:46;63.15;;;21.65;;
17686;SDS011;8962;52.538;13.266;2022-12-18T07:18:19;66.60;;;23.10;;
17686;SDS011;8962;52.538;13.266;2022-12-18T07:20:48;59.42;;;21.52;;
17686;SDS011;8962;52.538;13.266;2022-12-18T07:23:17;61.40;;;20.75;;
17686;SDS011;8962;52.538;13.266;2022-12-18T07:25:44;56.22;;;21.02;;
17686;SDS011;8962;52.538;13.266;2022-12-18T07:28:11;60.15;;;20.73;;
17686;SDS011;8962;52.538;13.266;2022-12-18T07:30:41;64.32;;;21.65;;
17686;SDS011;8962;52.538;13.266;2022-12-18T07:33:11;66.05;;;21.35;;
17686;SDS011;8962;52.538;13.266;2022-12-18T07:35:38;67.32;;;22.90;;
17686;SDS011;8962;52.538;13.266;2022-12-18T07:38:07;74.47;;;24.27;;
17686;SDS011;8962;52.538;13.266;2022-12-18T07:40:34;74.72;;;23.48;;
17686;SDS011;8962;52.538;13.266;2022-12-18T07:43:03;75.68;;;24.50;;
17686;SDS011;8962;52.538;13.266;2022-12-18T07:45:39;84.43;;;26.75;;
17686;SDS011;8962;52.538;13.266;2022-12-18T07:48:06;88.60;;;27.95;;
17686;SDS011;8962;52.538;13.266;2022-12-18T07:50:33;80.22;;;26.25;;
17686;SDS011;8962;52.538;13.266;2022-12-18T07:53:02;77.90;;;26.33;;
17686;SDS011;8962;52.538;13.266;2022-12-18T07:55:31;92.93;;;27.42;;
17686;SDS011;8962;52.538;13.266;2022-12-18T07:58:00;79.57;;;26.30;;
17686;SDS011;8962;52.538;13.266;2022-12-18T08:00:28;80.82;;;24.83;;
17686;SDS011;8962;52.538;13.266;2022-12-18T08:02:56;70.53;;;23.83;;
17686;SDS011;8962;52.538;13.266;2022-12-18T08:05:26;73.93;;;24.20;;
17686;SDS011;8962;52.538;13.266;2022-12-18T08:07:54;61.65;;;22.58;;
17686;SDS011;8962;52.538;13.266;2022-12-18T08:10:23;64.88;;;22.52;;
17686;SDS011;8962;52.538;13.266;2022-12-18T08:12:51;59.75;;;20.77;;
17686;SDS011;8962;52.538;13.266;2022-12-18T08:15:18;61.50;;;21.45;;
17686;SDS011;8962;52.538;13.266;2022-12-18T08:17:47;63.70;;;22.42;;
17686;SDS011;8962;52.538;13.266;2022-12-18T08:20:14;61.33;;;22.27;;
17686;SDS011;8962;52.538;13.266;2022-12-18T08:22:43;62.10;;;21.95;;
17686;SDS011;8962;52.538;13.266;2022-12-18T08:25:10;52.33;;;19.67;;
17686;SDS011;8962;52.538;13.266;2022-12-18T08:27:37;50.30;;;19.15;;
17686;SDS011;8962;52.538;13.266;2022-12-18T08:30:07;53.58;;;20.25;;
17686;SDS011;8962;52.538;13.266;2022-12-18T08:32:37;52.10;;;19.35;;
17686;SDS011;8962;52.538;13.266;2022-12-18T08:35:04;50.90;;;19.55;;
17686;SDS011;8962;52.538;13.266;2022-12-18T08:37:34;52.65;;;20.08;;
17686;SDS011;8962;52.538;13.266;2022-12-18T08:40:02;59.55;;;20.42;;
17686;SDS011;8962;52.538;13.266;2022-12-18T08:42:30;61.95;;;20.75;;
17686;SDS011;8962;52.538;13.266;2022-12-18T08:45:16;58.22;;;20.83;;
17686;SDS011;8962;52.538;13.266;2022-12-18T08:47:45;61.88;;;21.55;;
17686;SDS011;8962;52.538;13.266;2022-12-18T08:50:13;57.45;;;21.08;;
17686;SDS011;8962;52.538;13.266;2022-12-18T08:52:41;54.42;;;20.83;;
17686;SDS011;8962;52.538;13.266;2022-12-18T08:55:09;54.42;;;20.20;;
17686;SDS011;8962;52.538;13.266;2022-12-18T08:57:36;52.00;;;19.92;;
17686;SDS011;8962;52.538;13.266;2022-12-18T09:00:04;59.33;;;21.27;;
17686;SDS011;8962;52.538;13.266;2022-12-18T09:02:34;53.38;;;19.42;;
17686;SDS011;8962;52.538;13.266;2022-12-18T09:05:01;58.72;;;20.65;;
17686;SDS011;8962;52.538;13.266;2022-12-18T09:07:30;54.35;;;20.27;;
17686;SDS011;8962;52.538;13.266;2022-12-18T09:09:59;55.13;;;19.88;;
17686;SDS011;8962;52.538;13.266;2022-12-18T09:12:27;53.13;;;19.67;;
17686;SDS011;8962;52.538;13.266;2022-12-18T09:14:54;53.33;;;19.65;;
17686;SDS011;8962;52.538;13.266;2022-12-18T09:17:22;56.05;;;21.35;;
17686;SDS011;8962;52.538;13.266;2022-12-18T09:19:51;59.00;;;20.33;;
17686;SDS011;8962;52.538;13.266;2022-12-18T09:22:18;61.88;;;21.27;;
17686;SDS011;8962;52.538;13.266;2022-12-18T09:24:45;58.05;;;20.75;;
17686;SDS011;8962;52.538;13.266;2022-12-18T09:27:15;62.70;;;21.25;;
17686;SDS011;8962;52.538;13.266;2022-12-18T09:29:42;60.60;;;20.83;;
17686;SDS011;8962;52.538;13.266;2022-12-18T09:32:09;63.40;;;25.15;;
17686;SDS011;8962;52.538;13.266;2022-12-18T09:34:37;56.35;;;20.55;;
17686;SDS011;8962;52.538;13.266;2022-12-18T09:37:06;55.58;;;20.60;;
17686;SDS011;8962;52.538;13.266;2022-12-18T09:39:36;57.58;;;19.40;;
17686;SDS011;8962;52.538;13.266;2022-12-18T09:42:05;49.20;;;18.42;;
17686;SDS011;8962;52.538;13.266;2022-12-18T09:44:33;52.88;;;20.58;;
17686;SDS011;8962;52.538;13.266;2022-12-18T09:47:07;51.25;;;19.23;;
17686;SDS011;8962;52.538;13.266;2022-12-18T09:49:42;55.83;;;19.27;;
17686;SDS011;8962;52.538;13.266;2022-12-18T09:52:17;57.50;;;19.13;;
17686;SDS011;8962;52.538;13.266;2022-12-18T09:54:50;50.00;;;18.92;;
17686;SDS011;8962;52.538;13.266;2022-12-18T09:57:23;57.45;;;20.02;;
17686;SDS011;8962;52.538;13.266;2022-12-18T09:59:53;52.58;;;18.73;;
17686;SDS011;8962;52.538;13.266;2022-12-18T10:02:22;51.40;;;18.88;;
17686;SDS011;8962;52.538;13.266;2022-12-18T10:04:58;49.97;;;19.67;;
17686;SDS011;8962;52.538;13.266;2022-12-18T10:07:35;52.28;;;21.13;;
17686;SDS011;8962;52.538;13.266;2022-12-18T10:10:13;49.25;;;19.55;;
17686;SDS011;8962;52.538;13.266;2022-12-18T10:12:51;52.58;;;20.83;;
17686;SDS011;8962;52.538;13.266;2022-12-18T10:15:29;51.97;;;20.13;;
17686;SDS011;8962;52.538;13.266;2022-12-18T10:18:01;53.85;;;21.45;;
17686;SDS011;8962;52.538;13.266;2022-12-18T10:20:40;50.40;;;20.08;;
17686;SDS011;8962;52.538;13.266;2022-12-18T10:23:14;48.45;;;19.55;;
17686;SDS011;8962;52.538;13.266;2022-12-18T10:25:50;49.30;;;19.23;;
17686;SDS011;8962;52.538;13.266;2022-12-18T10:28:22;51.70;;;19.13;;
17686;SDS011;8962;52.538;13.266;2022-12-18T10:30:51;48.95;;;20.05;;
17686;SDS011;8962;52.538;13.266;2022-12-18T10:33:18;50.47;;;20.65;;
17686;SDS011;8962;52.538;13.266;2022-12-18T10:35:47;55.72;;;19.60;;
17686;SDS011;8962;52.538;13.266;2022-12-18T10:38:22;52.80;;;20.05;;
17686;SDS011;8962;52.538;13.266;2022-12-18T10:40:51;48.78;;;20.27;;
17686;SDS011;8962;52.538;13.266;2022-12-18T10:43:21;46.08;;;19.00;;
17686;SDS011;8962;52.538;13.266;2022-12-18T10:45:59;46.47;;;19.33;;
17686;SDS011;8962;52.538;13.266;2022-12-18T10:48:29;46.35;;;18.60;;
17686;SDS011;8962;52.538;13.266;2022-12-18T10:50:58;44.95;;;17.52;;
17686;SDS011;8962;52.538;13.266;2022-12-18T10:53:27;44.20;;;17.50;;
17686;SDS011;8962;52.538;13.266;2022-12-18T10:55:57;48.95;;;19.05;;
17686;SDS011;8962;52.538;13.266;2022-12-18T10:58:32;47.92;;;18.42;;
17686;SDS011;8962;52.538;13.266;2022-12-18T11:01:03;46.55;;;18.70;;
17686;SDS011;8962;52.538;13.266;2022-12-18T11:03:34;44.95;;;18.23;;
17686;SDS011;8962;52.538;13.266;2022-12-18T11:06:03;45.92;;;18.83;;
17686;SDS011;8962;52.538;13.266;2022-12-18T11:08:39;48.40;;;20.08;;
17686;SDS011;8962;52.538;13.266;2022-12-18T11:11:14;52.13;;;19.33;;
17686;SDS011;8962;52.538;13.266;2022-12-18T11:13:54;51.92;;;21.65;;
17686;SDS011;8962;52.538;13.266;2022-12-18T11:16:25;53.30;;;20.02;;
17686;SDS011;8962;52.538;13.266;2022-12-18T11:18:53;48.85;;;19.85;;
17686;SDS011;8962;52.538;13.266;2022-12-18T11:21:40;50.70;;;19.88;;
17686;SDS011;8962;52.538;13.266;2022-12-18T11:24:15;53.63;;;20.27;;
17686;SDS011;8962;52.538;13.266;2022-12-18T11:26:47;48.42;;;18.95;;
17686;SDS011;8962;52.538;13.266;2022-12-18T11:29:16;48.97;;;18.75;;
17686;SDS011;8962;52.538;13.266;2022-12-18T11:31:44;43.17;;;18.35;;
17686;SDS011;8962;52.538;13.266;2022-12-18T11:34:12;49.88;;;19.20;;
17686;SDS011;8962;52.538;13.266;2022-12-18T11:36:53;55.20;;;19.48;;
17686;SDS011;8962;52.538;13.266;2022-12-18T11:39:24;52.90;;;19.75;;
17686;SDS011;8962;52.538;13.266;2022-12-18T11:41:59;45.15;;;18.77;;
17686;SDS011;8962;52.538;13.266;2022-12-18T11:44:38;46.88;;;20.05;;
17686;SDS011;8962;52.538;13.266;2022-12-18T11:47:19;52.30;;;20.08;;
17686;SDS011;8962;52.538;13.266;2022-12-18T11:49:53;55.08;;;20.95;;
17686;SDS011;8962;52.538;13.266;2022-12-18T11:52:27;47.25;;;19.20;;
17686;SDS011;8962;52.538;13.266;2022-12-18T11:55:09;50.33;;;20.48;;
17686;SDS011;8962;52.538;13.266;2022-12-18T11:57:41;46.83;;;19.48;;
17686;SDS011;8962;52.538;13.266;2022-12-18T12:00:18;47.15;;;19.13;;
17686;SDS011;8962;52.538;13.266;2022-12-18T12:03:00;53.60;;;19.83;;
17686;SDS011;8962;52.538;13.266;2022-12-18T12:05:53;53.15;;;20.80;;
17686;SDS011;8962;52.538;13.266;2022-12-18T12:08:30;50.30;;;19.90;;
17686;SDS011;8962;52.538;13.266;2022-12-18T12:11:09;45.35;;;18.55;;
17686;SDS011;8962;52.538;13.266;2022-12-18T12:13:43;50.00;;;18.98;;
17686;SDS011;8962;52.538;13.266;2022-12-18T12:16:31;50.78;;;19.65;;
17686;SDS011;8962;52.538;13.266;2022-12-18T12:19:16;47.97;;;18.80;;
17686;SDS011;8962;52.538;13.266;2022-12-18T12:21:53;48.00;;;19.75;;
17686;SDS011;8962;52.538;13.266;2022-12-18T12:24:33;48.15;;;19.80;;
17686;SDS011;8962;52.538;13.266;2022-12-18T12:27:14;44.72;;;18.90;;
17686;SDS011;8962;52.538;13.266;2022-12-18T12:29:53;48.88;;;19.95;;
17686;SDS011;8962;52.538;13.266;2022-12-18T12:32:31;45.35;;;19.20;;
17686;SDS011;8962;52.538;13.266;2022-12-18T12:35:14;46.60;;;18.60;;
17686;SDS011;8962;52.538;13.266;2022-12-18T12:37:53;50.63;;;20.10;;
17686;SDS011;8962;52.538;13.266;2022-12-18T12:40:31;49.22;;;20.20;;
17686;SDS011;8962;52.538;13.266;2022-12-18T12:43:05;50.45;;;20.27;;
17686;SDS011;8962;52.538;13.266;2022-12-18T12:45:46;47.90;;;18.70;;
17686;SDS011;8962;52.538;13.266;2022-12-18T12:48:21;49.25;;;19.58;;
17686;SDS011;8962;52.538;13.266;2022-12-18T12:51:01;47.80;;;20.50;;
17686;SDS011;8962;52.538;13.266;2022-12-18T12:53:35;50.25;;;20.23;;
17686;SDS011;8962;52.538;13.266;2022-12-18T12:56:04;48.90;;;20.13;;
17686;SDS011;8962;52.538;13.266;2022-12-18T12:58:36;47.00;;;19.65;;
17686;SDS011;8962;52.538;13.266;2022-12-18T13:01:13;50.85;;;20.75;;
17686;SDS011;8962;52.538;13.266;2022-12-18T13:03:53;49.28;;;20.55;;
17686;SDS011;8962;52.538;13.266;2022-12-18T13:06:31;41.70;;;19.00;;
17686;SDS011;8962;52.538;13.266;2022-12-18T13:09:03;45.42;;;19.45;;
17686;SDS011;8962;52.538;13.266;2022-12-18T13:11:34;45.20;;;19.52;;
17686;SDS011;8962;52.538;13.266;2022-12-18T13:14:23;43.97;;;18.25;;
17686;SDS011;8962;52.538;13.266;2022-12-18T13:17:16;47.60;;;20.58;;
17686;SDS011;8962;52.538;13.266;2022-12-18T13:20:03;44.75;;;19.23;;
17686;SDS011;8962;52.538;13.266;2022-12-18T13:22:34;45.92;;;18.88;;
17686;SDS011;8962;52.538;13.266;2022-12-18T13:28:06;45.00;;;18.85;;
17686;SDS011;8962;52.538;13.266;2022-12-18T13:30:59;46.80;;;19.33;;
17686;SDS011;8962;52.538;13.266;2022-12-18T13:33:43;47.22;;;19.63;;
17686;SDS011;8962;52.538;13.266;2022-12-18T13:36:13;49.75;;;21.67;;
17686;SDS011;8962;52.538;13.266;2022-12-18T13:39:09;45.10;;;20.55;;
17686;SDS011;8962;52.538;13.266;2022-12-18T13:41:52;47.08;;;20.55;;
17686;SDS011;8962;52.538;13.266;2022-12-18T13:48:20;50.15;;;20.15;;
17686;SDS011;8962;52.538;13.266;2022-12-18T13:50:52;45.92;;;19.10;;
17686;SDS011;8962;52.538;13.266;2022-12-18T13:53:24;41.50;;;19.45;;
17686;SDS011;8962;52.538;13.266;2022-12-18T13:55:54;45.63;;;18.77;;
17686;SDS011;8962;52.538;13.266;2022-12-18T13:58:22;52.13;;;21.35;;
17686;SDS011;8962;52.538;13.266;2022-12-18T14:00:52;42.42;;;20.05;;
17686;SDS011;8962;52.538;13.266;2022-12-18T14:04:09;47.50;;;21.02;;
17686;SDS011;8962;52.538;13.266;2022-12-18T14:06:38;45.92;;;20.88;;
17686;SDS011;8962;52.538;13.266;2022-12-18T14:09:05;49.78;;;21.27;;
17686;SDS011;8962;52.538;13.266;2022-12-18T14:11:36;45.25;;;21.20;;
17686;SDS011;8962;52.538;13.266;2022-12-18T14:14:04;45.88;;;21.13;;
17686;SDS011;8962;52.538;13.266;2022-12-18T14:16:33;50.70;;;22.40;;
17686;SDS011;8962;52.538;13.266;2022-12-18T14:19:01;48.72;;;22.08;;
17686;SDS011;8962;52.538;13.266;2022-12-18T14:21:31;47.15;;;21.08;;
17686;SDS011;8962;52.538;13.266;2022-12-18T14:24:04;45.72;;;21.17;;
17686;SDS011;8962;52.538;13.266;2022-12-18T14:26:39;45.60;;;20.70;;
17686;SDS011;8962;52.538;13.266;2022-12-18T14:29:18;45.97;;;20.38;;
17686;SDS011;8962;52.538;13.266;2022-12-18T14:32:05;49.08;;;20.10;;
17686;SDS011;8962;52.538;13.266;2022-12-18T14:34:34;47.78;;;22.23;;
17686;SDS011;8962;52.538;13.266;2022-12-18T14:37:04;54.10;;;24.67;;
17686;SDS011;8962;52.538;13.266;2022-12-18T14:39:35;64.80;;;26.50;;
17686;SDS011;8962;52.538;13.266;2022-12-18T14:42:02;60.35;;;25.88;;
17686;SDS011;8962;52.538;13.266;2022-12-18T14:44:29;55.80;;;24.05;;
17686;SDS011;8962;52.538;13.266;2022-12-18T14:46:57;61.10;;;26.27;;
17686;SDS011;8962;52.538;13.266;2022-12-18T14:49:24;63.40;;;26.85;;
17686;SDS011;8962;52.538;13.266;2022-12-18T14:52:01;75.75;;;31.40;;
17686;SDS011;8962;52.538;13.266;2022-12-18T14:54:33;65.30;;;26.10;;